»·PEaware :: N644RT KVNY-KCMA

N644RT :: KVNY-KCMA

FLIGHT INFORMATION

Flight Status: Arrived
Operator: Privately registered:
United States
More flights under this callsign
Pilot: Anonymous 12820 (12820)
Aircraft: CESSNA 172 SKYHAWK
(C172)
More flights by this aircraft type
Origin: KVNY Van Nuys
United States
Destination: KCMA Camarillo
United States
More flights between these airports :: More routes between these airports
Route: +CANOG2 FIM
File this flight plan on PilotEdge
Remarks: +CW / TEC ROUTE BURP38
Altitude:
(Current/Filed)
6,000ft
Speed:
(Current/Filed)
115kts
Departed: 12-Nov-19 09:16 AM
Arrived: 12-Nov-19 10:09 AM
Distance/Time
Traveled:
30nm/0:53
Distance/Time
To Go:
Arrived

Flight Plot

Page will automatically refresh every two minutes.


Map Options




Map Legend


Flown Route
Filed Route
Departure Airport
Arrival Airport
Navaid (VOR, NDB)
Fix

Horizontal Profiles

Position Reports

Time Latitude Longitude Heading Altitude Ground
Speed
12-Nov-19 08:44 34.208083 -118.491765 91 806ft 0kts
12-Nov-19 08:45 34.208083 -118.491765 91 806ft 0kts
12-Nov-19 08:46 34.208083 -118.491765 91 806ft 0kts
12-Nov-19 08:47 34.208083 -118.491765 91 806ft 0kts
12-Nov-19 08:48 34.208083 -118.491765 91 806ft 0kts
12-Nov-19 08:49 34.208083 -118.491765 91 806ft 0kts
12-Nov-19 08:50 34.208083 -118.491765 91 806ft 0kts
12-Nov-19 08:51 34.208083 -118.491765 91 806ft 0kts
12-Nov-19 08:52 34.208083 -118.491765 91 806ft 0kts
12-Nov-19 08:53 34.208083 -118.491765 91 806ft 0kts
12-Nov-19 08:54 34.208083 -118.491765 91 806ft 0kts
12-Nov-19 08:55 34.208083 -118.491765 91 806ft 0kts
12-Nov-19 08:56 34.208083 -118.491765 91 806ft 0kts
12-Nov-19 08:57 34.208083 -118.491765 91 806ft 0kts
12-Nov-19 08:58 34.208083 -118.491765 91 806ft 0kts
12-Nov-19 08:59 34.208083 -118.491765 91 806ft 0kts
12-Nov-19 09:00 34.208083 -118.491765 91 806ft 0kts
12-Nov-19 09:01 34.208083 -118.491765 91 806ft 0kts
12-Nov-19 09:02 34.208083 -118.491765 91 806ft 0kts
12-Nov-19 09:03 34.208083 -118.491765 91 806ft 0kts
12-Nov-19 09:04 34.208083 -118.491765 91 806ft 0kts
12-Nov-19 09:05 34.208130 -118.491612 39 806ft 7kts
12-Nov-19 09:06 34.212697 -118.491803 358 806ft 21kts
12-Nov-19 09:07 34.217844 -118.492321 349 806ft 11kts
12-Nov-19 09:08 34.218873 -118.492173 40 806ft 0kts
12-Nov-19 09:09 34.218873 -118.492173 40 806ft 0kts
12-Nov-19 09:10 34.218873 -118.492173 40 806ft 0kts
12-Nov-19 09:11 34.218873 -118.492173 40 806ft 0kts
12-Nov-19 09:12 34.218873 -118.492173 40 806ft 0kts
12-Nov-19 09:13 34.218873 -118.492173 40 806ft 0kts
12-Nov-19 09:14 34.218873 -118.492173 40 806ft 0kts
12-Nov-19 09:15 34.210794 -118.489651 175 1041ft 70kts
12-Nov-19 09:16 34.188760 -118.483197 174 1684ft 94kts
12-Nov-19 09:17 34.165599 -118.483914 226 2204ft 71kts
12-Nov-19 09:18 34.149709 -118.500277 222 3131ft 76kts
12-Nov-19 09:19 34.133631 -118.516938 234 3935ft 85kts
12-Nov-19 09:20 34.134429 -118.548158 275 4065ft 98kts
12-Nov-19 09:21 34.137896 -118.580168 279 3977ft 97kts
12-Nov-19 09:22 34.141011 -118.611963 274 3891ft 92kts
12-Nov-19 09:23 34.144680 -118.638434 275 4359ft 104kts
12-Nov-19 09:24 34.161496 -118.663348 306 4345ft 101kts
12-Nov-19 09:25 34.179694 -118.690594 301 4522ft 108kts
12-Nov-19 09:26 34.198777 -118.720749 306 4549ft 113kts
12-Nov-19 09:27 34.220503 -118.749625 305 4456ft 110kts
12-Nov-19 09:28 34.239969 -118.778242 303 4426ft 115kts
12-Nov-19 09:29 34.247781 -118.811170 259 4415ft 102kts
12-Nov-19 09:30 34.248444 -118.847328 265 3921ft 108kts
12-Nov-19 09:31 34.244373 -118.882405 255 3442ft 104kts
12-Nov-19 09:32 34.238641 -118.911668 248 3270ft 74kts
12-Nov-19 09:33 34.234104 -118.938024 261 2732ft 82kts
12-Nov-19 09:34 34.231149 -118.961627 260 2391ft 78kts
12-Nov-19 09:35 34.227719 -118.988437 257 2214ft 80kts
12-Nov-19 09:36 34.223804 -119.015362 261 1789ft 82kts
12-Nov-19 09:37 34.219455 -119.041880 265 1291ft 80kts
12-Nov-19 09:38 34.216255 -119.068085 252 1166ft 82kts
12-Nov-19 09:39 34.212475 -119.095303 253 1414ft 78kts
12-Nov-19 09:40 34.208637 -119.120170 254 1962ft 76kts
12-Nov-19 09:41 34.197220 -119.138325 191 2869ft 79kts
12-Nov-19 09:42 34.197187 -119.115263 36 3760ft 104kts
12-Nov-19 09:43 34.216630 -119.088944 47 4056ft 106kts
12-Nov-19 09:44 34.237180 -119.061899 48 4120ft 110kts
12-Nov-19 09:45 34.258119 -119.033096 55 4110ft 115kts
12-Nov-19 09:46 34.280290 -119.004164 45 4106ft 113kts
12-Nov-19 09:47 34.298777 -118.974325 97 4100ft 114kts
12-Nov-19 09:48 34.294585 -118.936089 98 4054ft 116kts
12-Nov-19 09:49 34.291996 -118.897309 98 4066ft 116kts
12-Nov-19 09:50 34.289094 -118.858068 101 4041ft 117kts
12-Nov-19 09:51 34.286714 -118.819023 106 4023ft 117kts
12-Nov-19 09:52 34.268161 -118.790545 137 4061ft 108kts
12-Nov-19 09:53 34.248192 -118.763535 140 4061ft 106kts
12-Nov-19 09:54 34.226066 -118.742659 197 4011ft 97kts
12-Nov-19 09:55 34.217299 -118.769196 257 4031ft 88kts
12-Nov-19 09:56 34.211312 -118.797950 267 4005ft 92kts
12-Nov-19 09:57 34.210984 -118.828004 263 3446ft 90kts
12-Nov-19 09:58 34.210508 -118.856556 264 3331ft 83kts
12-Nov-19 09:59 34.211547 -118.884784 269 3004ft 76kts
12-Nov-19 10:00 34.212353 -118.911342 260 2867ft 71kts
12-Nov-19 10:01 34.212024 -118.936407 271 2527ft 84kts
12-Nov-19 10:02 34.212278 -118.962921 264 2084ft 79kts
12-Nov-19 10:03 34.212390 -118.988960 266 1672ft 80kts
12-Nov-19 10:04 34.212999 -119.015028 268 1211ft 76kts
12-Nov-19 10:05 34.212937 -119.040077 262 796ft 74kts
12-Nov-19 10:06 34.213734 -119.064868 271 421ft 81kts
12-Nov-19 10:07 34.213720 -119.086224 267 88ft 48kts
12-Nov-19 10:08 34.212781 -119.090866 211 69ft 0kts

Navigation Log

Ident Type
Flight plan parsing failed, navigation log unavailable